createdAt,value
2019-05-30T00:01:05.776Z,99.90
2019-05-30T00:03:35.887Z,99.90
2019-05-30T00:06:05.773Z,99.90
2019-05-30T00:08:35.326Z,99.90
2019-05-30T00:11:04.930Z,99.90
2019-05-30T00:13:34.529Z,99.90
2019-05-30T00:16:05.496Z,99.90
2019-05-30T00:18:33.497Z,99.90
2019-05-30T00:21:03.011Z,99.90
2019-05-30T00:23:32.804Z,99.90
2019-05-30T00:26:03.382Z,99.90
2019-05-30T00:28:31.714Z,99.90
2019-05-30T00:31:02.572Z,99.90
2019-05-30T00:33:32.364Z,99.90
2019-05-30T00:36:02.169Z,99.90
2019-05-30T00:38:31.612Z,99.90
2019-05-30T00:41:01.977Z,99.90
2019-05-30T00:43:30.996Z,99.90
2019-05-30T00:46:02.076Z,99.90
2019-05-30T00:48:30.614Z,99.90
2019-05-30T00:51:00.514Z,99.90
2019-05-30T00:53:30.142Z,99.90
2019-05-30T00:56:01.542Z,99.90
2019-05-30T00:58:29.657Z,99.90
2019-05-30T01:00:59.261Z,99.90
2019-05-30T01:03:28.878Z,99.90
2019-05-30T01:05:58.733Z,99.90
2019-05-30T01:08:28.909Z,99.90
2019-05-30T01:10:58.971Z,99.90
2019-05-30T01:13:28.258Z,99.90
2019-05-30T01:15:58.851Z,99.90
2019-05-30T01:18:27.732Z,99.90
2019-05-30T01:20:57.474Z,99.90
2019-05-30T01:23:27.063Z,99.90
2019-05-30T01:25:57.313Z,99.90
2019-05-30T01:28:29.170Z,99.90
2019-05-30T01:31:04.458Z,99.90
2019-05-30T01:33:30.097Z,99.90
2019-05-30T01:35:59.645Z,99.90
2019-05-30T01:38:29.254Z,99.90
2019-05-30T01:40:59.664Z,99.90
2019-05-30T01:43:28.945Z,99.90
2019-05-30T01:45:58.553Z,99.90
2019-05-30T01:48:28.164Z,99.90
2019-05-30T01:50:58.306Z,99.90
2019-05-30T01:53:27.776Z,99.90
2019-05-30T01:55:58.487Z,99.90
2019-05-30T01:58:28.331Z,99.90
2019-05-30T02:00:58.665Z,99.90
2019-05-30T02:03:27.363Z,99.90
2019-05-30T02:05:56.538Z,99.90
2019-05-30T02:08:25.993Z,99.90
2019-05-30T02:10:55.942Z,99.90
2019-05-30T02:13:25.349Z,99.90
2019-05-30T02:15:54.709Z,99.90
2019-05-30T02:18:24.363Z,99.90
2019-05-30T02:20:54.700Z,99.90
2019-05-30T02:23:24.304Z,99.90
2019-05-30T02:25:53.654Z,99.90
2019-05-30T02:28:23.274Z,99.90
2019-05-30T02:30:52.873Z,99.90
2019-05-30T02:33:22.220Z,99.90
2019-05-30T02:35:57.660Z,99.90
2019-05-30T02:38:27.408Z,99.90
2019-05-30T02:40:57.627Z,99.90
2019-05-30T02:43:27.186Z,99.90
2019-05-30T02:45:57.298Z,99.90
2019-05-30T02:48:26.965Z,99.90
2019-05-30T02:50:56.355Z,99.90
2019-05-30T02:53:27.454Z,99.90
2019-05-30T02:55:57.464Z,99.90
2019-05-30T02:58:26.913Z,99.90
2019-05-30T03:00:56.314Z,99.90
2019-05-30T03:03:25.928Z,99.90
2019-05-30T03:05:55.335Z,99.90
2019-05-30T03:08:24.712Z,99.90
2019-05-30T03:10:54.722Z,99.90
2019-05-30T03:13:23.987Z,99.90
2019-05-30T03:15:53.285Z,99.90
2019-05-30T03:18:23.305Z,99.90
2019-05-30T03:20:52.072Z,99.90
2019-05-30T03:23:21.528Z,99.90
2019-05-30T03:25:51.133Z,99.90
2019-05-30T03:28:20.690Z,99.90
2019-05-30T03:30:50.236Z,99.90
2019-05-30T03:33:38.175Z,99.90
2019-05-30T03:35:50.038Z,99.90
2019-05-30T03:38:25.350Z,99.90
2019-05-30T03:40:54.752Z,99.90
2019-05-30T03:43:24.469Z,99.90
2019-05-30T03:45:53.919Z,99.90
2019-05-30T03:48:23.815Z,99.90
2019-05-30T03:50:53.755Z,99.90
2019-05-30T03:53:23.258Z,99.90
2019-05-30T03:55:55.131Z,99.90
2019-05-30T03:58:45.524Z,99.90
2019-05-30T04:01:18.682Z,99.90
2019-05-30T04:03:58.670Z,99.90
2019-05-30T04:06:31.182Z,99.90
2019-05-30T04:09:02.629Z,99.90
2019-05-30T04:11:38.472Z,99.90
2019-05-30T04:14:09.016Z,99.90
2019-05-30T04:16:38.410Z,99.90
2019-05-30T04:19:08.109Z,99.90
2019-05-30T04:21:37.409Z,99.90
2019-05-30T04:24:07.520Z,99.90
2019-05-30T04:26:37.007Z,99.90
2019-05-30T04:29:07.994Z,99.90
2019-05-30T04:31:36.955Z,99.90
2019-05-30T04:34:08.147Z,99.90
2019-05-30T04:36:36.188Z,99.90
2019-05-30T04:39:08.803Z,99.90
2019-05-30T04:41:37.498Z,99.90
2019-05-30T04:44:07.070Z,99.90
2019-05-30T04:46:36.434Z,99.90
2019-05-30T04:49:05.949Z,99.90
2019-05-30T04:51:35.711Z,99.90
2019-05-30T04:54:05.245Z,99.90
2019-05-30T04:56:36.607Z,99.90
2019-05-30T04:59:07.336Z,99.90
2019-05-30T05:01:36.694Z,99.90
2019-05-30T05:04:07.121Z,99.90
2019-05-30T05:06:36.031Z,99.90
2019-05-30T05:09:05.660Z,99.90
2019-05-30T05:11:35.270Z,99.90
2019-05-30T05:14:04.951Z,99.90
2019-05-30T05:16:36.283Z,99.90
2019-05-30T05:19:04.222Z,99.90
2019-05-30T05:21:33.772Z,99.90
2019-05-30T05:24:03.231Z,99.90
2019-05-30T05:26:32.654Z,99.90
2019-05-30T05:29:02.284Z,99.90
2019-05-30T05:31:31.762Z,99.90
2019-05-30T05:34:00.948Z,99.90
2019-05-30T05:36:30.470Z,99.90
2019-05-30T05:39:00.143Z,99.90
2019-05-30T05:41:29.751Z,99.90
2019-05-30T05:43:59.206Z,99.90
2019-05-30T05:46:28.719Z,99.90
2019-05-30T05:48:58.315Z,99.90
2019-05-30T05:51:28.934Z,99.90
2019-05-30T05:53:57.464Z,99.90
2019-05-30T05:56:26.429Z,99.90
2019-05-30T05:58:56.115Z,99.90
2019-05-30T06:01:25.603Z,99.90
2019-05-30T06:03:54.903Z,99.90
2019-05-30T06:06:25.327Z,99.90
2019-05-30T06:08:53.969Z,99.90
2019-05-30T06:11:24.602Z,99.90
2019-05-30T06:13:53.420Z,99.90
2019-05-30T06:16:24.027Z,99.90
2019-05-30T06:18:52.945Z,99.90
2019-05-30T06:23:56.431Z,99.90
2019-05-30T06:26:26.030Z,99.90
2019-05-30T06:28:55.744Z,99.90
2019-05-30T06:31:26.477Z,99.90
2019-05-30T06:33:55.090Z,99.90
2019-05-30T06:36:25.078Z,99.90
2019-05-30T06:38:54.720Z,99.90
2019-05-30T06:41:24.020Z,99.90
2019-05-30T06:43:53.929Z,99.90
2019-05-30T06:46:24.145Z,99.90
2019-05-30T06:48:52.958Z,99.90
2019-05-30T06:51:22.802Z,99.90
2019-05-30T06:53:52.074Z,99.90
2019-05-30T06:56:21.373Z,99.90
2019-05-30T06:58:50.697Z,99.90
2019-05-30T07:01:20.062Z,99.90
2019-05-30T07:03:49.773Z,99.90
2019-05-30T07:06:19.798Z,99.90
2019-05-30T07:08:49.464Z,99.90
2019-05-30T07:11:18.880Z,99.90
2019-05-30T07:13:48.222Z,99.90
2019-05-30T07:16:17.821Z,99.90
2019-05-30T07:18:47.125Z,99.90
2019-05-30T07:21:16.499Z,99.90
2019-05-30T07:23:46.056Z,99.90
2019-05-30T07:26:15.363Z,99.90
2019-05-30T07:28:44.705Z,99.90
2019-05-30T07:31:13.640Z,99.90
2019-05-30T07:33:42.944Z,99.90
2019-05-30T07:36:12.614Z,99.90
2019-05-30T07:38:42.242Z,99.90
2019-05-30T07:41:11.917Z,99.90
2019-05-30T07:43:41.432Z,99.90
2019-05-30T07:46:16.234Z,99.90
2019-05-30T07:48:45.891Z,99.90
2019-05-30T07:51:15.282Z,99.90
2019-05-30T07:53:45.847Z,99.90
2019-05-30T07:56:15.148Z,99.90
2019-05-30T07:58:44.388Z,99.90
2019-05-30T08:01:13.779Z,99.90
2019-05-30T08:03:42.930Z,99.90
2019-05-30T08:06:12.428Z,99.90
2019-05-30T08:08:41.827Z,99.90
2019-05-30T08:11:11.445Z,99.90
2019-05-30T08:13:40.850Z,99.90
2019-05-30T08:16:10.156Z,99.90
2019-05-30T08:18:39.637Z,99.90
2019-05-30T08:21:09.233Z,99.90
2019-05-30T08:23:38.847Z,99.90
2019-05-30T08:26:08.271Z,99.90
2019-05-30T08:28:38.594Z,99.90
2019-05-30T08:31:08.012Z,99.90
2019-05-30T08:33:37.636Z,99.90
2019-05-30T08:36:06.841Z,99.90
2019-05-30T08:38:37.440Z,99.90
2019-05-30T08:41:06.996Z,99.90
2019-05-30T08:43:37.591Z,99.90
2019-05-30T08:46:07.683Z,99.90
2019-05-30T08:48:38.296Z,99.90
2019-05-30T08:51:07.511Z,99.90
2019-05-30T08:53:36.821Z,99.90
2019-05-30T08:56:06.487Z,99.90
2019-05-30T08:58:36.795Z,99.90
2019-05-30T09:01:05.693Z,99.90
2019-05-30T09:03:35.849Z,99.90
2019-05-30T09:06:05.161Z,99.90
2019-05-30T09:08:35.856Z,99.90
2019-05-30T09:11:04.475Z,99.90
2019-05-30T09:13:33.952Z,99.90
2019-05-30T09:16:03.587Z,99.90
2019-05-30T09:18:33.091Z,99.90
2019-05-30T09:21:02.835Z,99.90
2019-05-30T09:23:32.397Z,99.90
2019-05-30T09:26:01.779Z,99.90
2019-05-30T09:28:31.118Z,99.90
2019-05-30T09:31:00.507Z,99.90
2019-05-30T09:33:30.971Z,99.90
2019-05-30T09:36:12.597Z,99.90
2019-05-30T09:38:30.670Z,99.90
2019-05-30T09:41:00.048Z,99.90
2019-05-30T09:43:29.448Z,99.90
2019-05-30T09:45:58.677Z,99.90
2019-05-30T09:48:28.179Z,99.90
2019-05-30T09:50:58.252Z,99.90
2019-05-30T09:53:27.793Z,99.90
2019-05-30T09:55:57.302Z,99.90
2019-05-30T09:58:26.383Z,99.90
2019-05-30T10:00:56.022Z,99.90
2019-05-30T10:03:25.551Z,99.90
2019-05-30T10:05:54.959Z,99.90
2019-05-30T10:08:24.311Z,99.90
2019-05-30T10:10:53.690Z,99.90
2019-05-30T10:13:23.045Z,99.90
2019-05-30T10:15:52.852Z,99.90
2019-05-30T10:18:22.565Z,99.90
2019-05-30T10:20:53.575Z,99.90
2019-05-30T10:23:21.842Z,99.90
2019-05-30T10:25:51.473Z,99.90
2019-05-30T10:28:21.037Z,99.90
2019-05-30T10:30:54.481Z,99.90
2019-05-30T10:33:20.613Z,99.90
2019-05-30T10:35:51.464Z,99.90
2019-05-30T10:38:20.215Z,99.90
2019-05-30T10:40:50.478Z,99.90
2019-05-30T10:43:19.042Z,99.90
2019-05-30T10:45:49.501Z,99.90
2019-05-30T10:48:20.763Z,99.90
2019-05-30T10:50:48.580Z,99.90
2019-05-30T10:53:19.336Z,99.90
2019-05-30T10:55:49.874Z,99.90
2019-05-30T10:58:18.294Z,99.90
2019-05-30T11:00:51.490Z,99.90
2019-05-30T11:03:21.133Z,99.90
2019-05-30T11:06:06.082Z,99.90
2019-05-30T11:08:37.163Z,99.90
2019-05-30T11:11:06.640Z,99.90
2019-05-30T11:13:36.667Z,99.90
2019-05-30T11:16:06.623Z,99.90
2019-05-30T11:18:35.979Z,99.90
2019-05-30T11:21:06.189Z,99.90
2019-05-30T11:23:35.514Z,99.90
2019-05-30T11:26:05.066Z,99.90
2019-05-30T11:28:34.411Z,99.90
2019-05-30T11:31:04.682Z,99.90
2019-05-30T11:33:33.533Z,99.90
2019-05-30T11:36:02.812Z,99.90
2019-05-30T11:38:32.227Z,99.90
2019-05-30T11:41:02.810Z,99.90
2019-05-30T11:43:32.144Z,99.90
2019-05-30T11:46:02.393Z,99.90
2019-05-30T11:48:31.901Z,99.90
2019-05-30T11:51:01.193Z,99.90
2019-05-30T11:53:31.371Z,99.90
2019-05-30T11:56:01.130Z,99.90
2019-05-30T11:58:30.420Z,99.90
2019-05-30T12:01:00.598Z,99.90
2019-05-30T12:03:29.877Z,99.90
2019-05-30T12:05:59.208Z,99.90
2019-05-30T12:08:28.615Z,99.90
2019-05-30T12:10:59.388Z,99.90
2019-05-30T12:13:28.615Z,99.90
2019-05-30T12:15:57.889Z,99.90
2019-05-30T12:18:27.617Z,99.90
2019-05-30T12:20:57.715Z,99.90
2019-05-30T12:23:26.177Z,99.90
2019-05-30T12:25:55.953Z,99.90
2019-05-30T12:28:25.369Z,99.90
2019-05-30T12:31:01.029Z,99.90
2019-05-30T12:33:24.609Z,99.90
2019-05-30T12:35:54.782Z,99.90
2019-05-30T12:38:24.374Z,99.90
2019-05-30T12:40:54.716Z,99.90
2019-05-30T12:43:23.807Z,99.90
2019-05-30T12:45:53.262Z,99.90
2019-05-30T12:48:23.669Z,99.90
2019-05-30T12:50:53.177Z,99.90
2019-05-30T12:53:23.097Z,99.90
2019-05-30T12:55:52.448Z,99.90
2019-05-30T12:58:22.218Z,99.90
2019-05-30T13:00:52.660Z,99.90
2019-05-30T13:03:22.287Z,99.90
2019-05-30T13:05:51.699Z,99.90
2019-05-30T13:08:22.108Z,99.90
2019-05-30T13:10:50.597Z,99.90
2019-05-30T13:13:19.977Z,99.90
2019-05-30T13:15:49.479Z,99.90
2019-05-30T13:18:19.145Z,99.90
2019-05-30T13:20:48.562Z,99.90
2019-05-30T13:23:18.090Z,99.90
2019-05-30T13:25:47.381Z,99.90
2019-05-30T13:28:16.820Z,99.90
2019-05-30T13:30:46.360Z,99.90
2019-05-30T13:33:15.906Z,99.90
2019-05-30T13:35:45.203Z,99.90
2019-05-30T13:38:25.903Z,99.90
2019-05-30T13:40:44.947Z,99.90
2019-05-30T13:43:15.270Z,99.90
2019-05-30T13:45:44.697Z,99.90
2019-05-30T13:48:13.937Z,99.90
2019-05-30T13:50:43.438Z,99.90
2019-05-30T13:53:13.008Z,99.90
2019-05-30T13:55:42.400Z,99.90
2019-05-30T13:58:12.060Z,99.90
2019-05-30T14:00:41.496Z,99.90
2019-05-30T14:03:11.823Z,99.90
2019-05-30T14:05:41.451Z,99.90
2019-05-30T14:08:16.401Z,99.90
2019-05-30T14:10:41.041Z,99.90
2019-05-30T14:13:11.266Z,99.90
2019-05-30T14:15:40.319Z,99.90
2019-05-30T14:18:09.574Z,99.90
2019-05-30T14:20:39.076Z,99.90
2019-05-30T14:23:09.387Z,99.90
2019-05-30T14:25:38.308Z,99.90
2019-05-30T14:28:07.840Z,99.90
2019-05-30T14:30:37.154Z,99.90
2019-05-30T14:33:06.303Z,99.90
2019-05-30T14:35:35.789Z,99.90
2019-05-30T14:38:05.080Z,99.90
2019-05-30T14:40:34.145Z,99.90
2019-05-30T14:43:05.147Z,99.90
2019-05-30T14:45:34.732Z,99.90
2019-05-30T14:48:06.322Z,99.90
2019-05-30T14:50:35.344Z,99.90
2019-05-30T14:53:04.901Z,99.90
2019-05-30T14:55:34.195Z,99.90
2019-05-30T14:58:04.918Z,99.90
2019-05-30T15:00:33.834Z,99.90
2019-05-30T15:03:05.435Z,99.90
2019-05-30T15:05:33.927Z,99.90
2019-05-30T15:08:04.634Z,99.90
2019-05-30T15:10:33.515Z,99.90
2019-05-30T15:13:03.122Z,99.90
2019-05-30T15:15:32.691Z,99.90
2019-05-30T15:18:02.131Z,99.90
2019-05-30T15:20:31.526Z,99.90
2019-05-30T15:23:01.355Z,99.90
2019-05-30T15:25:30.546Z,99.90
2019-05-30T15:27:59.829Z,99.90
2019-05-30T15:30:29.372Z,99.90
2019-05-30T15:32:58.584Z,99.90
2019-05-30T15:35:27.314Z,99.90
2019-05-30T15:37:56.800Z,99.90
2019-05-30T15:40:26.198Z,99.90
2019-05-30T15:42:56.352Z,99.90
2019-05-30T15:45:25.824Z,99.90
2019-05-30T15:47:55.344Z,99.90
2019-05-30T15:50:24.764Z,99.90
2019-05-30T15:52:54.409Z,99.90
2019-05-30T15:55:23.725Z,99.90
2019-05-30T15:57:53.292Z,99.90
2019-05-30T16:00:22.657Z,99.90
2019-05-30T16:02:52.024Z,99.90
2019-05-30T16:05:21.488Z,99.90
2019-05-30T16:07:51.165Z,99.90
2019-05-30T16:10:21.097Z,99.90
2019-05-30T16:12:50.200Z,99.90
2019-05-30T16:15:19.957Z,99.90
2019-05-30T16:17:49.383Z,99.90
2019-05-30T16:20:19.917Z,99.90
2019-05-30T16:22:48.850Z,99.90
2019-05-30T16:25:18.112Z,99.90
2019-05-30T16:27:47.568Z,99.90
2019-05-30T16:30:19.635Z,99.90
2019-05-30T16:32:47.187Z,99.90
2019-05-30T16:35:16.494Z,99.90
2019-05-30T16:37:46.149Z,99.90
2019-05-30T16:40:16.419Z,99.90
2019-05-30T16:42:46.110Z,99.90
2019-05-30T16:45:19.479Z,99.90
2019-05-30T16:47:45.609Z,99.90
2019-05-30T16:50:16.438Z,99.90
2019-05-30T16:52:45.854Z,99.90
2019-05-30T16:55:15.317Z,99.90
2019-05-30T16:57:44.598Z,99.90
2019-05-30T17:00:15.547Z,99.90
2019-05-30T17:02:44.080Z,99.90
2019-05-30T17:05:15.748Z,99.90
2019-05-30T17:07:44.425Z,99.90
2019-05-30T17:10:23.449Z,99.90
2019-05-30T17:12:44.046Z,99.90
2019-05-30T17:15:13.601Z,99.90
2019-05-30T17:17:42.960Z,99.90
2019-05-30T17:20:13.651Z,99.90
2019-05-30T17:22:43.217Z,99.90
2019-05-30T17:25:12.470Z,99.90
2019-05-30T17:27:41.914Z,99.90
2019-05-30T17:30:11.997Z,99.90
2019-05-30T17:32:41.619Z,99.90
2019-05-30T17:35:11.246Z,99.90
2019-05-30T17:37:40.546Z,99.90
2019-05-30T17:40:10.899Z,99.90
2019-05-30T17:42:39.800Z,99.90
2019-05-30T17:45:10.522Z,99.90
2019-05-30T17:47:39.788Z,99.90
2019-05-30T17:50:10.515Z,97.10
2019-05-30T17:52:39.907Z,97.10
2019-05-30T17:55:09.589Z,96.80
2019-05-30T17:57:38.896Z,96.00
2019-05-30T18:00:10.422Z,96.60
2019-05-30T18:02:40.134Z,98.40
2019-05-30T18:05:09.917Z,98.30
2019-05-30T18:07:39.336Z,98.80
2019-05-30T18:10:09.156Z,95.90
2019-05-30T18:12:38.769Z,95.00
2019-05-30T18:15:09.418Z,94.40
2019-05-30T18:17:39.112Z,95.00
2019-05-30T18:20:09.013Z,94.10
2019-05-30T18:22:38.483Z,93.80
2019-05-30T18:25:10.031Z,91.10
2019-05-30T18:27:39.552Z,91.10
2019-05-30T18:30:09.152Z,91.60
2019-05-30T18:32:38.835Z,91.60
2019-05-30T18:35:08.675Z,92.60
2019-05-30T18:37:38.575Z,94.50
2019-05-30T18:40:08.570Z,95.50
2019-05-30T18:42:38.108Z,97.30
2019-05-30T18:45:09.753Z,99.30
2019-05-30T18:47:40.007Z,99.50
2019-05-30T18:50:09.992Z,99.50
2019-05-30T18:52:39.597Z,99.70
2019-05-30T18:55:09.212Z,99.70
2019-05-30T18:57:38.933Z,99.90
2019-05-30T19:00:09.266Z,99.90
2019-05-30T19:02:38.846Z,99.90
2019-05-30T19:05:09.191Z,99.90
2019-05-30T19:07:40.534Z,98.30
2019-05-30T19:10:10.098Z,98.30
2019-05-30T19:12:39.526Z,97.30
2019-05-30T19:15:09.238Z,96.60
2019-05-30T19:17:38.751Z,97.60
2019-05-30T19:20:08.253Z,95.70
2019-05-30T19:22:40.872Z,95.30
2019-05-30T19:25:08.106Z,95.80
2019-05-30T19:27:38.521Z,95.60
2019-05-30T19:30:07.402Z,98.50
2019-05-30T19:32:36.938Z,96.80
2019-05-30T19:35:06.926Z,96.30
2019-05-30T19:37:37.605Z,97.80
2019-05-30T19:40:06.953Z,96.80
2019-05-30T19:42:37.688Z,97.40
2019-05-30T19:45:07.757Z,95.80
2019-05-30T19:47:38.586Z,93.50
2019-05-30T19:50:09.494Z,93.00
2019-05-30T19:52:39.130Z,91.80
2019-05-30T19:55:08.998Z,90.60
2019-05-30T19:57:40.191Z,92.10
2019-05-30T20:00:09.905Z,92.10
2019-05-30T20:02:40.508Z,91.30
2019-05-30T20:05:10.686Z,91.30
2019-05-30T20:07:40.814Z,92.50
2019-05-30T20:10:11.495Z,90.60
2019-05-30T20:12:41.064Z,90.90
2019-05-30T20:15:11.168Z,90.50
2019-05-30T20:17:41.730Z,89.40
2019-05-30T20:20:10.910Z,88.40
2019-05-30T20:22:40.528Z,90.40
2019-05-30T20:25:10.404Z,92.40
2019-05-30T20:27:40.919Z,90.80
2019-05-30T20:30:09.991Z,93.80
2019-05-30T20:32:40.723Z,90.70
2019-05-30T20:35:10.150Z,92.20
2019-05-30T20:37:40.704Z,92.20
2019-05-30T20:40:09.391Z,91.90
2019-05-30T20:42:39.025Z,93.30
2019-05-30T20:45:10.146Z,93.00
2019-05-30T20:50:15.357Z,91.40
2019-05-30T20:52:45.611Z,93.20
2019-05-30T20:55:14.608Z,93.10
2019-05-30T20:57:44.162Z,93.60
2019-05-30T21:00:14.214Z,92.30
2019-05-30T21:02:43.872Z,94.00
2019-05-30T21:05:14.624Z,95.30
2019-05-30T21:07:44.431Z,95.20
2019-05-30T21:10:14.464Z,93.20
2019-05-30T21:12:46.942Z,93.50
2019-05-30T21:15:15.184Z,94.00
2019-05-30T21:17:46.057Z,94.30
2019-05-30T21:20:14.630Z,94.20
2019-05-30T21:22:44.674Z,93.70
2019-05-30T21:25:14.253Z,95.10
2019-05-30T21:27:45.071Z,95.70
2019-05-30T21:30:13.395Z,94.40
2019-05-30T21:32:44.152Z,95.00
2019-05-30T21:35:13.145Z,95.60
2019-05-30T21:37:43.641Z,95.80
2019-05-30T21:40:12.727Z,94.00
2019-05-30T21:43:00.395Z,95.10
2019-05-30T21:45:11.766Z,95.50
2019-05-30T21:47:42.647Z,95.30
2019-05-30T21:50:11.490Z,93.10
2019-05-30T21:52:41.461Z,94.20
2019-05-30T21:55:11.077Z,93.50
2019-05-30T21:57:41.935Z,95.20
2019-05-30T22:00:12.033Z,95.20
2019-05-30T22:02:42.223Z,94.90
2019-05-30T22:05:11.186Z,94.20
2019-05-30T22:07:41.345Z,96.00
2019-05-30T22:10:10.225Z,96.00
2019-05-30T22:12:39.768Z,94.50
2019-05-30T22:15:09.049Z,93.60
2019-05-30T22:17:38.423Z,93.50
2019-05-30T22:20:08.322Z,94.60
2019-05-30T22:22:37.946Z,94.60
2019-05-30T22:25:07.806Z,95.90
2019-05-30T22:27:37.162Z,95.20
2019-05-30T22:30:06.884Z,94.40
2019-05-30T22:32:36.272Z,93.90
2019-05-30T22:35:05.746Z,95.20
2019-05-30T22:37:35.056Z,94.20
2019-05-30T22:40:04.991Z,95.20
2019-05-30T22:42:34.433Z,94.30
2019-05-30T22:45:03.902Z,95.70
2019-05-30T22:47:33.493Z,95.00
2019-05-30T22:50:02.969Z,96.00
2019-05-30T22:52:32.572Z,96.20
2019-05-30T22:55:01.900Z,95.70
2019-05-30T22:57:31.103Z,94.30
2019-05-30T23:00:00.550Z,95.40
2019-05-30T23:02:30.108Z,94.20
2019-05-30T23:04:59.730Z,93.40
2019-05-30T23:07:29.135Z,93.60
2019-05-30T23:09:58.530Z,94.80
2019-05-30T23:12:27.690Z,93.10
2019-05-30T23:14:58.679Z,94.10
2019-05-30T23:17:27.872Z,93.70
2019-05-30T23:19:57.440Z,93.30
2019-05-30T23:22:27.145Z,95.00
2019-05-30T23:24:57.519Z,95.40
2019-05-30T23:27:26.156Z,95.40
2019-05-30T23:29:55.975Z,94.30
2019-05-30T23:32:25.405Z,94.60
2019-05-30T23:34:56.329Z,94.20
2019-05-30T23:37:25.082Z,93.90
2019-05-30T23:39:54.917Z,94.00
2019-05-30T23:42:24.281Z,93.00
2019-05-30T23:44:53.840Z,93.50
2019-05-30T23:47:23.321Z,93.60
2019-05-30T23:49:53.823Z,94.60
2019-05-30T23:52:22.962Z,96.50
2019-05-30T23:54:52.409Z,95.20
2019-05-30T23:57:21.676Z,93.70
2019-05-30T23:59:52.721Z,95.10
